Time;durP1;ratioP1;P1;durP2;ratioP2;P2;SDS_P1;SDS_P2;PMS_P1;PMS_P2;Temp;Humidity;BMP_temperature;BMP_pressure;BME280_temperature;BME280_humidity;BME280_pressure;Samples;Min_cycle;Max_cycle;Signal;HPM_P1;HPM_P2
2022/03/02 00:02:16;;;;;;;18.23;14.67;;;-2.40;99.90;;;;;;5089592;28;20399;-82
2022/03/02 00:04:41;;;;;;;16.52;14.82;;;-2.40;99.90;;;;;;5089433;28;20416;-82
2022/03/02 00:07:07;;;;;;;17.85;14.85;;;-2.30;99.90;;;;;;5089543;28;20368;-81
2022/03/02 00:09:32;;;;;;;17.13;15.32;;;-2.30;99.90;;;;;;5089675;28;20424;-81
2022/03/02 00:11:58;;;;;;;17.83;15.80;;;-2.30;99.90;;;;;;5071176;28;20452;-81
2022/03/02 00:14:24;;;;;;;17.07;15.37;;;-2.30;99.90;;;;;;5090402;28;20398;-81
2022/03/02 00:16:49;;;;;;;15.77;14.17;;;-2.30;99.90;;;;;;5071928;28;20463;-81
2022/03/02 00:19:15;;;;;;;18.00;15.50;;;-2.30;99.90;;;;;;5089254;28;20400;-82
2022/03/02 00:21:41;;;;;;;16.57;14.70;;;-2.20;99.90;;;;;;5090892;28;20459;-82
2022/03/02 00:24:08;;;;;;;17.43;15.63;;;-2.30;99.90;;;;;;5088951;28;20400;-82
2022/03/02 00:26:34;;;;;;;17.88;15.95;;;-2.40;99.90;;;;;;5071807;28;20388;-81
2022/03/02 00:29:00;;;;;;;18.15;16.25;;;-2.20;99.90;;;;;;5075636;28;20377;-81
2022/03/02 00:31:26;;;;;;;18.30;15.88;;;-2.20;99.90;;;;;;5093026;28;20942;-81
2022/03/02 00:33:52;;;;;;;17.77;15.87;;;-2.20;99.90;;;;;;5074918;28;20503;-82
2022/03/02 00:36:17;;;;;;;18.50;16.50;;;-2.20;99.90;;;;;;5094068;28;20734;-81
2022/03/02 00:38:43;;;;;;;19.10;16.93;;;-2.20;99.90;;;;;;5093818;28;20388;-81
2022/03/02 00:41:09;;;;;;;18.60;16.00;;;-2.30;99.90;;;;;;5093065;28;20403;-82
2022/03/02 00:43:34;;;;;;;19.00;16.97;;;-2.30;99.90;;;;;;5092116;28;20956;-81
2022/03/02 00:46:00;;;;;;;18.90;16.47;;;-2.30;99.90;;;;;;5093225;28;20364;-82
2022/03/02 00:48:26;;;;;;;17.40;15.57;;;-2.30;99.90;;;;;;5092637;28;20758;-82
2022/03/02 00:50:52;;;;;;;18.03;16.13;;;-2.30;99.90;;;;;;5092974;28;20463;-82
2022/03/02 00:53:18;;;;;;;19.25;16.30;;;-2.30;99.90;;;;;;5092710;28;20380;-81
2022/03/02 00:55:43;;;;;;;17.98;16.08;;;-2.30;99.90;;;;;;5074915;28;20427;-82
2022/03/02 00:58:09;;;;;;;16.67;15.00;;;-2.40;99.90;;;;;;5074253;28;20376;-82
2022/03/02 01:00:36;;;;;;;17.10;15.25;;;-2.30;99.90;;;;;;5093001;28;20935;-82
2022/03/02 01:03:01;;;;;;;17.48;15.57;;;-2.40;99.90;;;;;;5074155;28;20385;-81
2022/03/02 01:05:27;;;;;;;18.02;15.82;;;-2.20;99.90;;;;;;5092680;28;20398;-81
2022/03/02 01:07:53;;;;;;;17.73;15.80;;;-1.50;99.90;;;;;;5074104;28;20750;-81
2022/03/02 01:10:19;;;;;;;17.20;15.40;;;-2.30;99.90;;;;;;5091820;28;20406;-82
2022/03/02 01:12:45;;;;;;;17.70;15.77;;;-2.20;99.90;;;;;;5073797;28;20393;-82
2022/03/02 01:15:11;;;;;;;18.90;15.20;;;-2.20;99.90;;;;;;5074769;28;20380;-82
2022/03/02 01:17:37;;;;;;;17.92;16.10;;;-2.20;99.90;;;;;;5074421;28;20417;-82
2022/03/02 01:20:06;;;;;;;19.20;17.03;;;-2.30;99.90;;;;;;5092392;28;21159;-81
2022/03/02 01:22:32;;;;;;;19.77;17.67;;;-2.20;99.90;;;;;;5092585;28;20372;-80
2022/03/02 01:24:58;;;;;;;20.88;17.33;;;-2.40;99.90;;;;;;5074156;28;20404;-83
2022/03/02 01:27:24;;;;;;;18.63;16.70;;;-2.20;99.90;;;;;;5092353;28;20419;-82
2022/03/02 01:29:51;;;;;;;19.70;17.60;;;-2.20;99.90;;;;;;5092182;28;20443;-81
2022/03/02 01:32:17;;;;;;;19.25;17.25;;;-2.20;99.90;;;;;;5073875;28;20930;-82
2022/03/02 01:34:43;;;;;;;19.02;17.13;;;-2.10;99.90;;;;;;5073694;28;20541;-81
2022/03/02 01:37:08;;;;;;;19.08;16.65;;;-2.20;99.90;;;;;;5073909;28;20487;-82
2022/03/02 01:39:34;;;;;;;19.00;16.98;;;-2.10;99.90;;;;;;5090625;28;20384;-82
2022/03/02 01:42:00;;;;;;;19.00;17.00;;;-2.00;99.90;;;;;;5073542;28;20447;-81
2022/03/02 01:44:26;;;;;;;20.40;17.17;;;-2.10;99.90;;;;;;5091119;28;20420;-81
2022/03/02 01:46:51;;;;;;;18.83;16.60;;;-2.00;99.90;;;;;;5092670;28;20365;-81
2022/03/02 01:49:17;;;;;;;18.08;15.90;;;-2.00;99.90;;;;;;5092777;28;20376;-83
2022/03/02 01:51:42;;;;;;;17.50;15.67;;;-1.90;99.90;;;;;;5075693;28;20377;-81
2022/03/02 01:54:09;;;;;;;17.03;15.30;;;-1.90;99.90;;;;;;5091487;28;20373;-81
2022/03/02 01:56:35;;;;;;;18.00;16.10;;;-1.90;99.90;;;;;;5074683;28;20469;-83
2022/03/02 01:59:03;;;;;;;17.30;15.50;;;-1.90;99.90;;;;;;5091971;28;20368;-83
2022/03/02 02:01:30;;;;;;;18.58;16.58;;;-1.80;99.90;;;;;;5091759;28;20416;-83
2022/03/02 02:03:56;;;;;;;18.15;16.20;;;-1.90;99.90;;;;;;5091150;28;20396;-82
2022/03/02 02:06:22;;;;;;;17.92;16.02;;;-1.90;99.90;;;;;;5091712;28;20380;-82
2022/03/02 02:08:47;;;;;;;17.97;15.67;;;-1.80;99.90;;;;;;5073540;28;20468;-82
2022/03/02 02:11:14;;;;;;;18.53;16.47;;;-1.80;99.90;;;;;;5091620;28;20381;-82
2022/03/02 02:13:40;;;;;;;17.48;15.00;;;-1.80;99.90;;;;;;5073615;28;20810;-83
2022/03/02 02:16:06;;;;;;;17.73;15.43;;;-1.70;99.90;;;;;;5091452;28;20439;-82
2022/03/02 02:18:33;;;;;;;17.23;15.02;;;-1.70;99.90;;;;;;5073411;28;20881;-82
2022/03/02 02:21:04;;;;;;;18.13;16.23;;;-1.60;99.90;;;;;;5072756;28;20420;-81
2022/03/02 02:23:30;;;;;;;17.97;15.73;;;-1.40;99.90;;;;;;5072636;28;20758;-83
2022/03/02 02:25:56;;;;;;;16.85;15.15;;;-1.50;99.90;;;;;;5091238;28;20376;-81
2022/03/02 02:28:23;;;;;;;17.40;15.50;;;-1.50;99.90;;;;;;5073226;28;20534;-82
2022/03/02 02:30:52;;;;;;;18.85;15.95;;;-1.50;99.90;;;;;;5073233;28;20381;-82
2022/03/02 02:33:18;;;;;;;17.85;15.27;;;-1.50;99.90;;;;;;5073613;28;20918;-82
2022/03/02 02:35:44;;;;;;;17.27;15.47;;;-1.50;99.90;;;;;;5090569;28;20399;-81
2022/03/02 02:38:10;;;;;;;18.95;16.05;;;-1.40;99.90;;;;;;5090832;28;20391;-81
2022/03/02 02:40:36;;;;;;;17.92;15.25;;;-1.40;99.90;;;;;;5091024;28;20388;-82
2022/03/02 02:43:02;;;;;;;16.92;14.68;;;-1.40;99.90;;;;;;5091433;28;20369;-81
2022/03/02 02:45:27;;;;;;;17.50;15.60;;;-1.40;99.90;;;;;;5073748;28;20802;-81
2022/03/02 02:47:55;;;;;;;17.25;15.45;;;-1.40;99.90;;;;;;5091363;28;20404;-81
2022/03/02 02:50:27;;;;;;;16.45;14.85;;;-1.30;99.90;;;;;;5090401;28;20496;-83
2022/03/02 02:52:54;;;;;;;16.63;14.77;;;-1.20;99.90;;;;;;5090615;28;20383;-81
2022/03/02 02:55:24;;;;;;;16.80;15.10;;;-1.30;99.90;;;;;;5091214;28;20368;-82
2022/03/02 02:57:50;;;;;;;17.45;15.65;;;-1.20;99.90;;;;;;5072663;28;20745;-81
2022/03/02 03:00:18;;;;;;;16.23;14.52;;;-1.10;99.90;;;;;;5072685;28;20480;-83
2022/03/02 03:02:46;;;;;;;17.30;15.45;;;-1.20;99.90;;;;;;5090187;28;20380;-83
2022/03/02 03:05:15;;;;;;;18.38;15.77;;;-1.10;99.90;;;;;;5089263;28;20436;-82
2022/03/02 03:07:41;;;;;;;17.83;15.90;;;-1.00;99.90;;;;;;5072211;28;20391;-81
2022/03/02 03:10:09;;;;;;;17.17;15.37;;;-0.90;99.90;;;;;;5072651;28;20377;-82
2022/03/02 03:12:35;;;;;;;18.02;16.10;;;-0.90;99.90;;;;;;5097132;28;20431;-83
2022/03/02 03:15:03;;;;;;;17.75;15.18;;;-1.00;99.90;;;;;;5090849;28;20369;-81
2022/03/02 03:17:29;;;;;;;16.70;14.77;;;-1.00;99.90;;;;;;5071839;28;20716;-82
2022/03/02 03:19:54;;;;;;;17.70;15.77;;;-1.10;99.90;;;;;;5089960;28;20422;-82
2022/03/02 03:22:20;;;;;;;17.95;16.05;;;-1.10;99.90;;;;;;5071471;28;20384;-82
2022/03/02 03:24:45;;;;;;;17.33;15.48;;;-1.10;99.90;;;;;;5090963;28;20500;-81
2022/03/02 03:27:11;;;;;;;18.17;16.03;;;-1.10;99.90;;;;;;5090586;28;20387;-84
2022/03/02 03:29:37;;;;;;;17.83;16.03;;;-1.10;99.90;;;;;;5073431;28;20387;-81
2022/03/02 03:32:04;;;;;;;16.90;15.10;;;-1.10;99.90;;;;;;5071763;28;20792;-83
2022/03/02 03:34:30;;;;;;;16.90;15.00;;;-1.00;99.90;;;;;;5073368;28;20703;-82
2022/03/02 03:36:55;;;;;;;17.67;15.75;;;-1.00;99.90;;;;;;5089016;28;20391;-82
2022/03/02 03:39:22;;;;;;;17.52;15.63;;;-1.10;99.90;;;;;;5089003;28;20369;-81
2022/03/02 03:41:48;;;;;;;18.52;16.52;;;-1.00;99.90;;;;;;5089260;28;20392;-83
2022/03/02 03:44:13;;;;;;;17.77;15.47;;;-1.10;99.90;;;;;;5089285;28;20754;-84
2022/03/02 03:46:39;;;;;;;19.15;16.13;;;-1.20;99.90;;;;;;5071365;28;20989;-84
2022/03/02 03:49:05;;;;;;;17.58;15.70;;;-1.20;99.90;;;;;;5089345;28;20377;-83
2022/03/02 03:51:30;;;;;;;17.10;15.40;;;-1.50;99.90;;;;;;5071157;28;20449;-83
2022/03/02 03:53:56;;;;;;;18.10;16.07;;;-1.20;99.90;;;;;;5071006;28;20388;-83
2022/03/02 03:56:22;;;;;;;18.00;16.20;;;-1.30;99.90;;;;;;5089257;28;20894;-83
2022/03/02 03:58:47;;;;;;;18.90;16.60;;;-1.30;99.90;;;;;;5089013;28;20406;-83
2022/03/02 04:01:14;;;;;;;20.27;17.43;;;-1.20;99.90;;;;;;5070795;28;20885;-81
2022/03/02 04:03:39;;;;;;;20.95;17.60;;;-1.40;99.90;;;;;;5070039;28;20432;-81
2022/03/02 04:06:05;;;;;;;18.97;16.97;;;-1.50;99.90;;;;;;5088743;28;20964;-83
2022/03/02 04:08:30;;;;;;;17.60;15.80;;;-0.80;99.90;;;;;;5070640;28;20912;-83
2022/03/02 04:10:56;;;;;;;21.27;17.27;;;-1.20;99.90;;;;;;5071461;28;20368;-82
2022/03/02 04:13:22;;;;;;;19.60;17.50;;;-1.50;99.90;;;;;;5088568;28;20475;-83
2022/03/02 04:15:47;;;;;;;20.90;17.40;;;-1.50;99.90;;;;;;5088740;28;20365;-82
2022/03/02 04:18:13;;;;;;;19.65;17.52;;;-1.60;99.90;;;;;;5071337;28;20387;-82
2022/03/02 04:20:39;;;;;;;20.40;17.25;;;-1.60;99.90;;;;;;5088594;28;20441;-84
2022/03/02 04:23:05;;;;;;;20.45;17.88;;;-1.60;99.90;;;;;;5088445;28;20708;-85
2022/03/02 04:25:31;;;;;;;20.77;18.27;;;-1.60;99.90;;;;;;5089040;28;20429;-83
2022/03/02 04:27:57;;;;;;;22.13;18.60;;;-1.60;99.90;;;;;;5089375;28;20949;-84
2022/03/02 04:30:23;;;;;;;21.10;18.63;;;-1.60;99.90;;;;;;5088971;28;20965;-84
2022/03/02 04:32:49;;;;;;;22.17;18.97;;;-1.60;99.90;;;;;;5088701;28;20423;-84
2022/03/02 04:35:15;;;;;;;21.35;18.73;;;-1.60;99.90;;;;;;5089349;28;20411;-84
2022/03/02 04:37:41;;;;;;;21.83;18.88;;;-1.10;99.90;;;;;;5088424;28;20411;-83
2022/03/02 04:40:10;;;;;;;21.25;18.92;;;-1.70;99.90;;;;;;5088791;28;20364;-85
2022/03/02 04:42:36;;;;;;;21.50;18.83;;;-1.50;99.90;;;;;;5088961;28;20754;-81
2022/03/02 04:45:02;;;;;;;21.90;18.23;;;-1.80;99.90;;;;;;5071147;28;20396;-84
2022/03/02 04:47:28;;;;;;;19.90;17.55;;;-1.70;99.90;;;;;;5089244;28;20389;-85
2022/03/02 04:49:54;;;;;;;22.43;19.90;;;-1.70;99.90;;;;;;5070360;28;20369;-83
2022/03/02 04:52:20;;;;;;;20.42;18.33;;;-1.70;99.90;;;;;;5088364;28;20404;-82
2022/03/02 04:57:31;;;;;;;20.70;18.58;;;-1.60;99.90;;;;;;5088724;28;20399;-82
2022/03/02 04:59:57;;;;;;;22.08;18.52;;;-1.80;99.90;;;;;;5089284;28;20376;-84
2022/03/02 05:02:22;;;;;;;22.17;19.77;;;-1.80;99.90;;;;;;5070132;28;20393;-81
2022/03/02 05:04:49;;;;;;;23.40;20.27;;;-1.80;99.90;;;;;;5088755;28;20440;-83
2022/03/02 05:07:16;;;;;;;24.55;20.67;;;-1.80;99.90;;;;;;5088992;28;20393;-85
2022/03/02 05:09:42;;;;;;;23.23;20.10;;;-1.80;99.90;;;;;;5090436;28;20503;-84
2022/03/02 05:12:08;;;;;;;26.67;22.40;;;-1.90;99.90;;;;;;5088930;28;20376;-82
2022/03/02 05:14:34;;;;;;;25.88;22.17;;;-1.80;99.90;;;;;;5076091;28;20383;-84
2022/03/02 05:17:00;;;;;;;29.10;23.83;;;-1.90;99.90;;;;;;5091869;28;20384;-84
2022/03/02 05:19:26;;;;;;;26.13;23.23;;;-1.90;99.90;;;;;;5074006;28;20862;-82
2022/03/02 05:21:51;;;;;;;28.17;24.65;;;-1.90;99.90;;;;;;5073548;28;20396;-83
2022/03/02 05:24:17;;;;;;;27.33;23.60;;;-1.80;99.90;;;;;;5092121;28;20915;-82
2022/03/02 05:26:43;;;;;;;28.95;23.90;;;-2.10;99.90;;;;;;5073475;28;20480;-84
2022/03/02 05:29:08;;;;;;;26.17;22.70;;;-2.10;99.90;;;;;;5074253;28;20368;-84
2022/03/02 05:31:34;;;;;;;25.33;21.73;;;-2.10;99.90;;;;;;5073474;28;20785;-82
2022/03/02 05:34:00;;;;;;;25.00;21.53;;;-2.20;99.90;;;;;;5092349;28;20433;-85
2022/03/02 05:36:26;;;;;;;23.35;20.67;;;-2.20;99.90;;;;;;5072886;28;20408;-83
2022/03/02 05:38:52;;;;;;;27.02;21.67;;;-2.30;99.90;;;;;;5091736;28;20402;-82
2022/03/02 05:41:18;;;;;;;27.50;21.50;;;-2.20;99.90;;;;;;5091594;28;20393;-82
2022/03/02 05:43:44;;;;;;;26.38;21.67;;;-2.20;99.90;;;;;;5073438;28;20902;-82
2022/03/02 05:46:10;;;;;;;25.77;22.07;;;-2.20;99.90;;;;;;5072691;28;20399;-82
2022/03/02 05:48:37;;;;;;;25.93;22.03;;;-2.20;99.90;;;;;;5091628;28;20376;-84
2022/03/02 05:51:03;;;;;;;25.92;22.35;;;-2.20;99.90;;;;;;5072523;28;20396;-83
2022/03/02 05:53:31;;;;;;;27.30;23.00;;;-2.10;99.90;;;;;;5091660;28;20430;-85
2022/03/02 05:55:57;;;;;;;24.90;22.20;;;-2.20;99.90;;;;;;5072273;28;20395;-83
2022/03/02 05:58:22;;;;;;;28.20;23.70;;;-2.20;99.90;;;;;;5091062;28;20394;-82
2022/03/02 06:00:48;;;;;;;26.80;22.87;;;-2.20;99.90;;;;;;5072703;28;20390;-84
2022/03/02 06:03:14;;;;;;;29.50;23.50;;;-2.20;99.90;;;;;;5073291;28;20384;-82
2022/03/02 06:05:40;;;;;;;27.40;22.33;;;-2.20;99.90;;;;;;5071561;28;20463;-83
2022/03/02 06:08:07;;;;;;;26.77;22.45;;;-2.20;99.90;;;;;;5091039;28;20369;-84
2022/03/02 06:10:34;;;;;;;26.58;22.48;;;-2.10;99.90;;;;;;5073356;28;20438;-84
2022/03/02 06:13:00;;;;;;;30.33;24.00;;;-2.20;99.90;;;;;;5090237;28;20380;-81
2022/03/02 06:15:26;;;;;;;30.10;22.48;;;-2.10;99.90;;;;;;5072270;28;21185;-83
2022/03/02 06:17:52;;;;;;;29.75;24.33;;;-2.00;99.90;;;;;;5090735;28;20435;-83
2022/03/02 06:20:18;;;;;;;28.65;23.33;;;-2.20;99.90;;;;;;5073055;28;20385;-83
2022/03/02 06:22:44;;;;;;;26.15;22.63;;;-2.10;99.90;;;;;;5090534;28;20388;-83
2022/03/02 06:25:11;;;;;;;28.65;22.88;;;-2.10;99.90;;;;;;5090105;28;20384;-84
2022/03/02 06:27:38;;;;;;;27.02;22.70;;;-2.10;99.90;;;;;;5090860;28;20387;-83
2022/03/02 06:30:07;;;;;;;28.65;23.40;;;-1.70;99.90;;;;;;5072698;28;20781;-82
2022/03/02 06:32:34;;;;;;;25.50;22.17;;;-2.00;99.90;;;;;;5090566;28;20372;-82
2022/03/02 06:35:01;;;;;;;24.77;22.08;;;-1.80;99.90;;;;;;5071640;28;20376;-83
2022/03/02 06:37:27;;;;;;;26.00;22.25;;;-1.90;99.90;;;;;;5089735;28;20910;-83
2022/03/02 06:39:55;;;;;;;33.47;22.52;;;-1.90;99.90;;;;;;5090305;28;20372;-84
2022/03/02 06:42:35;;;;;;;24.40;19.75;;;-1.90;99.90;;;;;;5089182;28;20384;-83
2022/03/02 06:45:10;;;;;;;24.20;21.17;;;-1.80;99.90;;;;;;5091584;28;20397;-80
2022/03/02 06:47:50;;;;;;;26.25;21.33;;;-1.60;99.90;;;;;;5090885;28;20497;-85
2022/03/02 06:50:23;;;;;;;30.58;22.08;;;-1.60;99.90;;;;;;5091646;28;20371;-84
2022/03/02 06:52:52;;;;;;;38.03;22.73;;;-1.60;99.90;;;;;;5090416;28;20400;-81
2022/03/02 06:55:17;;;;;;;35.80;21.75;;;-1.30;99.90;;;;;;5091276;28;20372;-82
2022/03/02 06:57:50;;;;;;;36.33;22.63;;;-1.40;99.90;;;;;;5071933;28;20411;-86
2022/03/02 07:00:16;;;;;;;32.63;22.35;;;-1.20;99.90;;;;;;5090063;28;20380;-82
2022/03/02 07:02:46;;;;;;;29.30;22.95;;;-1.10;99.90;;;;;;5071430;28;20373;-84
2022/03/02 07:05:12;;;;;;;41.47;24.45;;;-1.00;99.90;;;;;;5071807;28;20435;-83
2022/03/02 07:07:38;;;;;;;33.20;23.30;;;-0.90;99.90;;;;;;5089299;28;20525;-81
2022/03/02 07:10:05;;;;;;;29.42;22.08;;;-0.80;99.90;;;;;;5090259;28;20372;-84
2022/03/02 07:12:31;;;;;;;23.10;20.10;;;-0.50;99.90;;;;;;5089418;28;20459;-85
2022/03/02 07:14:57;;;;;;;26.88;22.08;;;-0.60;99.90;;;;;;5086577;28;20534;-82
2022/03/02 07:17:26;;;;;;;26.13;21.50;;;-0.50;99.90;;;;;;5090056;28;20481;-82
2022/03/02 07:19:52;;;;;;;25.27;20.73;;;-0.50;99.90;;;;;;5071310;28;20909;-82
2022/03/02 07:22:21;;;;;;;25.50;21.65;;;-0.30;99.90;;;;;;5089160;28;20365;-82
2022/03/02 07:24:55;;;;;;;25.65;20.38;;;-0.30;99.90;;;;;;5089453;28;20400;-84
2022/03/02 07:27:23;;;;;;;27.23;21.58;;;-0.30;99.90;;;;;;5089781;28;20387;-83
2022/03/02 07:29:50;;;;;;;25.70;20.95;;;-0.20;99.90;;;;;;5089648;28;20526;-82
2022/03/02 07:32:25;;;;;;;26.20;21.17;;;0.00;99.90;;;;;;5071134;28;20393;-83
2022/03/02 07:34:56;;;;;;;25.33;20.33;;;0.00;99.90;;;;;;5089672;28;20407;-82
2022/03/02 07:37:23;;;;;;;26.58;21.17;;;0.10;99.90;;;;;;5088079;28;20376;-82
2022/03/02 07:39:49;;;;;;;25.77;21.00;;;0.20;99.90;;;;;;5089296;28;20376;-84
2022/03/02 07:42:15;;;;;;;23.90;20.58;;;0.30;99.90;;;;;;5071042;28;20741;-82
2022/03/02 07:44:41;;;;;;;26.92;21.63;;;0.40;99.90;;;;;;5089488;28;20420;-84
2022/03/02 07:47:08;;;;;;;24.77;21.00;;;0.40;99.90;;;;;;5071133;28;20405;-84
2022/03/02 07:49:35;;;;;;;23.93;20.73;;;0.60;99.90;;;;;;5081036;28;20435;-82
2022/03/02 07:52:05;;;;;;;26.20;21.42;;;0.70;99.90;;;;;;5077961;28;20374;-83
2022/03/02 07:54:41;;;;;;;25.05;20.65;;;1.00;99.90;;;;;;5100443;28;20416;-86
2022/03/02 07:57:11;;;;;;;27.77;23.08;;;1.30;99.90;;;;;;5084540;28;20760;-85
2022/03/02 07:59:40;;;;;;;27.52;22.23;;;1.60;99.90;;;;;;5088037;28;20766;-85
2022/03/02 08:02:07;;;;;;;28.53;23.57;;;1.80;99.90;;;;;;5088857;28;20468;-85
2022/03/02 08:04:34;;;;;;;30.05;23.83;;;1.90;99.90;;;;;;5070571;28;20491;-82
2022/03/02 08:07:00;;;;;;;30.73;23.67;;;2.40;99.90;;;;;;5070434;28;20387;-85
2022/03/02 08:09:26;;;;;;;29.00;23.23;;;2.40;99.90;;;;;;5070396;28;20392;-82
2022/03/02 08:11:52;;;;;;;30.53;24.73;;;2.40;99.90;;;;;;5070402;28;20436;-85
2022/03/02 08:14:18;;;;;;;30.20;25.83;;;2.50;99.90;;;;;;5070216;28;20724;-85
2022/03/02 08:16:47;;;;;;;35.25;26.92;;;2.60;99.90;;;;;;5088994;28;20384;-84
2022/03/02 08:19:13;;;;;;;38.50;29.13;;;2.80;99.90;;;;;;5070486;28;20423;-82
2022/03/02 08:21:42;;;;;;;38.47;29.13;;;;;;;;;;5071249;28;20456;-81
2022/03/02 08:24:10;;;;;;;35.47;28.27;;;;;;;;;;5088227;28;20408;-82
2022/03/02 08:26:52;;;;;;;37.08;28.15;;;;;;;;;;5086123;28;20380;-85
2022/03/02 08:29:21;;;;;;;35.15;27.65;;;;;;;;;;5069795;28;20384;-82
2022/03/02 08:31:48;;;;;;;32.05;26.58;;;;;;;;;;5068422;28;20455;-83
2022/03/02 08:34:15;;;;;;;34.08;27.38;;;;;;;;;;5069806;28;20384;-84
2022/03/02 08:36:43;;;;;;;34.53;26.63;;;;;;;;;;5088233;28;20802;-83
2022/03/02 08:39:12;;;;;;;31.20;25.38;;;;;;;;;;5068977;28;20406;-85
2022/03/02 08:41:39;;;;;;;31.45;25.00;;;;;;;;;;5087234;28;20387;-84
2022/03/02 08:44:06;;;;;;;31.37;24.70;;;;;;;;;;5085418;28;20448;-85
2022/03/02 08:46:32;;;;;;;32.45;24.83;;;;;;;;;;5087283;28;20379;-85
2022/03/02 08:49:01;;;;;;;31.40;23.75;;;;;;;;;;5072758;28;20958;-86
2022/03/02 08:51:28;;;;;;;30.48;23.88;;;;;;;;;;5073728;28;20812;-85
2022/03/02 08:53:55;;;;;;;30.67;24.35;;;;;;;;;;5091625;28;20484;-84
2022/03/02 08:56:22;;;;;;;31.88;25.33;;;;;;;;;;5074044;28;20391;-84
2022/03/02 08:58:48;;;;;;;32.10;25.13;;;;;;;;;;5091880;28;20739;-87
2022/03/02 09:01:15;;;;;;;32.53;24.58;;;;;;;;;;5092369;28;20379;-85
2022/03/02 09:03:46;;;;;;;31.52;25.13;;;;;;;;;;5092016;28;20476;-84
2022/03/02 09:06:13;;;;;;;34.25;24.38;;;;;;;;;;5073348;28;20383;-86
2022/03/02 09:08:39;;;;;;;31.02;24.52;;;;;;;;;;5073358;28;20392;-87
2022/03/02 09:11:05;;;;;;;33.33;24.50;;;;;;;;;;5073346;28;20403;-86
2022/03/02 09:13:31;;;;;;;29.92;23.55;;;;;;;;;;5091122;28;20455;-85
2022/03/02 09:15:57;;;;;;;30.80;23.67;;;;;;;;;;5091601;28;20472;-85
2022/03/02 09:18:23;;;;;;;34.90;25.57;;;;;;;;;;5091817;28;20422;-87
2022/03/02 09:20:56;;;;;;;31.15;25.50;;;;;;;;;;5073789;28;20411;-89
2022/03/02 09:23:25;;;;;;;32.28;24.65;;;;;;;;;;5091140;28;20380;-84
2022/03/02 09:25:52;;;;;;;33.80;25.52;;;;;;;;;;5073447;28;20376;-87
2022/03/02 09:28:20;;;;;;;30.83;25.05;;;;;;;;;;5092182;28;20372;-86
2022/03/02 09:30:46;;;;;;;33.15;24.92;;;;;;;;;;5073197;28;20387;-84
2022/03/02 09:33:14;;;;;;;30.57;22.80;;;;;;;;;;5090981;28;20463;-86
2022/03/02 09:35:41;;;;;;;32.70;24.60;;;;;;;;;;5091661;28;21142;-85
2022/03/02 09:38:08;;;;;;;28.95;23.65;;;;;;;;;;5092008;28;20383;-84
2022/03/02 09:40:35;;;;;;;30.55;24.80;;;;;;;;;;5073049;28;20396;-89
2022/03/02 09:43:03;;;;;;;31.95;25.20;;;;;;;;;;5073122;28;20905;-84
2022/03/02 09:45:30;;;;;;;31.13;24.73;;;;;;;;;;5090987;28;20417;-85
2022/03/02 09:47:58;;;;;;;35.83;25.23;;;;;;;;;;5091160;28;20449;-84
2022/03/02 09:50:26;;;;;;;28.42;23.70;;;;;;;;;;5088732;28;20375;-87
2022/03/02 09:52:54;;;;;;;31.42;24.40;;;;;;;;;;5082922;28;20471;-86
2022/03/02 09:55:24;;;;;;;30.02;24.38;;;;;;;;;;5074441;28;20460;-87
2022/03/02 09:57:53;;;;;;;31.40;23.55;;;;;;;;;;5091852;28;20408;-88
2022/03/02 10:00:20;;;;;;;34.13;23.45;;;;;;;;;;5073126;28;20376;-86
2022/03/02 10:02:47;;;;;;;31.70;23.13;;;;;;;;;;5092620;28;20373;-86
2022/03/02 10:05:18;;;;;;;29.93;23.20;;;;;;;;;;5091452;28;20395;-86
2022/03/02 10:07:51;;;;;;;27.07;22.40;;;;;;;;;;5073294;28;20882;-85
2022/03/02 10:10:22;;;;;;;31.30;23.07;;;;;;;;;;5090856;28;20404;-83
2022/03/02 10:12:48;;;;;;;38.85;24.38;;;;;;;;;;5090393;28;20385;-87
2022/03/02 10:15:15;;;;;;;31.35;23.90;;;;;;;;;;5071803;28;20392;-85
2022/03/02 10:17:43;;;;;;;32.92;24.85;;;;;;;;;;5052837;28;20437;-86
2022/03/02 10:20:14;;;;;;;30.73;24.27;;;;;;;;;;5077744;28;20389;-84
2022/03/02 10:22:40;;;;;;;34.63;25.37;;;;;;;;;;5071869;28;20392;-89
2022/03/02 10:25:10;;;;;;;32.65;24.77;;;;;;;;;;5071880;28;20426;-87
2022/03/02 10:27:40;;;;;;;31.80;23.98;;;;;;;;;;5072064;28;20419;-87
2022/03/02 10:30:06;;;;;;;34.17;25.38;;;;;;;;;;5090657;28;20377;-84
2022/03/02 10:32:35;;;;;;;34.77;25.07;;;;;;;;;;5072460;28;20435;-85
2022/03/02 10:35:04;;;;;;;33.35;25.45;;;;;;;;;;5072832;28;20392;-83
2022/03/02 10:37:32;;;;;;;33.65;25.65;;;;;;;;;;5072631;28;20446;-89
2022/03/02 10:39:58;;;;;;;33.40;25.45;;;;;;;;;;5071733;28;20419;-87
2022/03/02 10:42:28;;;;;;;34.10;25.70;;;;;;;;;;5072116;28;20404;-84
2022/03/02 10:44:54;;;;;;;31.00;24.52;;;;;;;;;;5069472;28;20419;-89
2022/03/02 10:47:22;;;;;;;29.48;24.33;;;;;;;;;;5090233;28;20381;-85
2022/03/02 10:49:51;;;;;;;32.77;24.23;;;;;;;;;;5090578;28;20384;-87
2022/03/02 10:52:20;;;;;;;33.65;25.17;;;;;;;;;;5094281;28;20444;-88
2022/03/02 10:54:48;;;;;;;32.28;24.95;;;;;;;;;;5071256;28;20404;-86
2022/03/02 10:57:15;;;;;;;34.15;25.63;;;;;;;;;;5073142;28;20742;-84
2022/03/02 10:59:44;;;;;;;33.13;25.85;;;;;;;;;;5072722;28;20426;-86
2022/03/02 11:02:11;;;;;;;32.85;25.25;;;;;;;;;;5076508;28;20414;-86
2022/03/02 11:04:43;;;;;;;31.35;24.40;;;;;;;;;;5073458;28;21018;-83
2022/03/02 11:07:10;;;;;;;32.30;23.92;;;;;;;;;;5090792;28;20522;-87
2022/03/02 11:09:37;;;;;;;30.45;23.38;;;;;;;;;;5071870;28;20813;-85
2022/03/02 11:12:04;;;;;;;35.28;24.50;;;;;;;;;;5071916;28;20862;-87
2022/03/02 11:14:30;;;;;;;32.30;23.55;;;;;;;;;;5090308;28;20364;-86
2022/03/02 11:17:16;;;;;;;29.27;23.02;;;;;;;;;;5072099;28;20384;-89
2022/03/02 11:19:45;;;;;;;30.93;22.50;;;;;;;;;;5071489;28;20973;-87
2022/03/02 11:22:16;;;;;;;27.17;22.25;;;;;;;;;;5089884;28;20384;-84
2022/03/02 11:24:43;;;;;;;28.35;22.13;;;;;;;;;;5071518;28;20420;-86
2022/03/02 11:27:25;;;;;;;27.20;21.90;;;;;;;;;;5090436;28;20404;-86
2022/03/02 11:30:00;;;;;;;24.53;19.93;;;;;;;;;;5089309;28;20882;-88
2022/03/02 11:32:26;;;;;;;26.73;20.50;;;;;;;;;;5089585;28;20395;-88
2022/03/02 11:34:52;;;;;;;26.48;20.20;;;;;;;;;;5072062;28;20379;-88
2022/03/02 11:37:18;;;;;;;24.17;18.40;;;;;;;;;;5071490;28;20390;-85
2022/03/02 11:39:44;;;;;;;25.17;19.45;;;;;;;;;;5090687;28;20365;-88
2022/03/02 11:42:11;;;;;;;26.60;20.77;;;;;;;;;;5090238;28;20402;-85
2022/03/02 11:44:39;;;;;;;24.45;19.40;;;;;;;;;;5072126;28;20458;-87
2022/03/02 11:47:06;;;;;;;23.80;17.88;;;;;;;;;;5073398;28;20450;-85
2022/03/02 11:49:39;;;;;;;23.30;17.98;;;;;;;;;;5090074;28;20450;-86
2022/03/02 11:52:06;;;;;;;23.20;17.27;;;;;;;;;;5091358;28;20858;-84
2022/03/02 11:54:40;;;;;;;21.90;16.38;;;;;;;;;;5091403;28;20372;-86
2022/03/02 11:57:06;;;;;;;13.48;10.70;;;;;;;;;;5071658;28;20448;-86
2022/03/02 11:59:35;;;;;;;14.33;11.13;;;;;;;;;;5071644;28;20523;-88
2022/03/02 12:02:01;;;;;;;12.98;10.10;;;;;;;;;;5090029;28;20400;-85
2022/03/02 12:04:28;;;;;;;12.00;9.45;;;;;;;;;;5063317;28;20402;-83
2022/03/02 12:06:55;;;;;;;16.90;11.10;;;;;;;;;;5052996;28;20409;-88
2022/03/02 12:09:31;;;;;;;19.98;11.63;;;;;;;;;;5067713;28;20443;-87
2022/03/02 12:12:07;;;;;;;15.80;11.45;;;;;;;;;;5091384;28;20476;-84
2022/03/02 12:14:42;;;;;;;13.75;10.93;;;;;;;;;;5090641;28;20369;-84
2022/03/02 12:17:20;;;;;;;20.15;15.00;;;;;;;;;;5090475;28;20471;-86
2022/03/02 12:19:48;;;;;;;20.33;15.93;;;;;;;;;;5071430;28;20372;-87
2022/03/02 12:22:14;;;;;;;26.30;19.10;;;;;;;;;;5073369;28;20453;-85
2022/03/02 12:24:40;;;;;;;23.73;17.50;;;;;;;;;;5098448;28;20479;-83
2022/03/02 12:27:11;;;;;;;23.40;16.77;;;;;;;;;;5075783;28;20384;-83
2022/03/02 12:29:38;;;;;;;22.80;18.13;;;;;;;;;;5097205;28;20447;-85
2022/03/02 12:32:07;;;;;;;18.95;15.50;;;;;;;;;;5081466;28;20376;-86
2022/03/02 12:34:35;;;;;;;20.90;15.95;;;;;;;;;;5083457;28;20840;-83
2022/03/02 12:37:01;;;;;;;23.40;16.75;;;;;;;;;;5097971;28;20427;-84
2022/03/02 12:39:28;;;;;;;17.75;14.25;;;;;;;;;;5097268;28;20368;-84
2022/03/02 12:41:54;;;;;;;23.85;18.90;;;;;;;;;;5076926;28;20786;-86
2022/03/02 12:44:21;;;;;;;21.08;15.65;;;;;;;;;;5079424;28;20428;-85
2022/03/02 12:46:48;;;;;;;22.52;17.15;;;;;;;;;;5078879;28;20396;-84
2022/03/02 12:49:14;;;;;;;22.77;17.60;;;;;;;;;;5097571;28;20457;-87
2022/03/02 12:51:46;;;;;;;20.95;17.10;;;;;;;;;;5078808;28;20859;-85
2022/03/02 12:54:12;;;;;;;21.85;16.48;;;;;;;;;;5080582;28;20471;-84
2022/03/02 12:56:38;;;;;;;19.93;15.47;;;;;;;;;;5081262;28;20452;-83
2022/03/02 12:59:05;;;;;;;21.98;16.52;;;;;;;;;;5083340;28;20364;-87
2022/03/02 13:01:31;;;;;;;35.97;25.58;;;;;;;;;;5077871;28;20367;-84
2022/03/02 13:03:59;;;;;;;19.83;15.55;;;;;;;;;;5077334;28;20535;-85
2022/03/02 13:06:29;;;;;;;23.33;15.83;;;;;;;;;;5080801;28;20467;-83
2022/03/02 13:08:58;;;;;;;21.15;16.55;;;;;;;;;;5081978;28;20941;-86